createdAt,value
2018-09-28T00:00:44.507Z,6.30
2018-09-28T00:03:15.298Z,6.40
2018-09-28T00:05:45.660Z,7.77
2018-09-28T00:08:16.155Z,8.70
2018-09-28T00:10:46.630Z,7.63
2018-09-28T00:13:17.120Z,8.37
2018-09-28T00:15:47.508Z,9.20
2018-09-28T00:18:17.742Z,8.17
2018-09-28T00:20:48.051Z,9.13
2018-09-28T00:23:19.035Z,8.37
2018-09-28T00:25:49.549Z,7.10
2018-09-28T00:28:19.987Z,7.23
2018-09-28T00:30:50.168Z,6.43
2018-09-28T00:33:20.561Z,6.80
2018-09-28T00:35:51.084Z,7.17
2018-09-28T00:38:21.375Z,7.10
2018-09-28T00:40:51.703Z,6.63
2018-09-28T00:43:22.150Z,7.03
2018-09-28T00:45:52.588Z,6.80
2018-09-28T00:48:23.019Z,6.97
2018-09-28T00:50:53.191Z,7.17
2018-09-28T00:53:23.793Z,7.30
2018-09-28T00:55:54.416Z,7.60
2018-09-28T00:58:24.742Z,7.63
2018-09-28T01:00:55.112Z,7.47
2018-09-28T01:03:25.535Z,8.10
2018-09-28T01:05:55.907Z,8.47
2018-09-28T01:08:26.385Z,8.23
2018-09-28T01:10:56.795Z,11.00
2018-09-28T01:13:27.250Z,9.63
2018-09-28T01:15:57.634Z,9.43
2018-09-28T01:18:28.001Z,9.10
2018-09-28T01:20:58.488Z,10.07
2018-09-28T01:23:29.092Z,10.70
2018-09-28T01:25:59.581Z,11.57
2018-09-28T01:28:29.939Z,10.10
2018-09-28T01:31:00.377Z,10.40
2018-09-28T01:33:30.787Z,10.83
2018-09-28T01:36:01.259Z,9.80
2018-09-28T01:38:31.752Z,9.77
2018-09-28T01:41:02.348Z,10.07
2018-09-28T01:43:33.380Z,9.63
2018-09-28T01:46:03.617Z,9.40
2018-09-28T01:48:34.003Z,9.90
2018-09-28T01:51:04.411Z,10.17
2018-09-28T01:53:34.872Z,8.93
2018-09-28T01:56:05.344Z,9.57
2018-09-28T01:58:35.820Z,8.80
2018-09-28T02:01:06.251Z,8.57
2018-09-28T02:03:36.641Z,9.77
2018-09-28T02:06:07.157Z,9.03
2018-09-28T02:08:37.902Z,9.90
2018-09-28T02:11:08.320Z,9.53
2018-09-28T02:13:38.792Z,9.40
2018-09-28T02:16:09.325Z,10.20
2018-09-28T02:18:39.738Z,10.30
2018-09-28T02:21:10.138Z,11.07
2018-09-28T02:23:40.629Z,11.40
2018-09-28T02:26:11.211Z,12.10
2018-09-28T02:28:42.181Z,13.50
2018-09-28T02:31:12.510Z,12.70
2018-09-28T02:33:42.895Z,14.20
2018-09-28T02:36:13.237Z,13.50
2018-09-28T02:38:43.633Z,13.70
2018-09-28T02:41:14.120Z,13.70
2018-09-28T02:43:44.608Z,15.20
2018-09-28T02:46:15.106Z,14.00
2018-09-28T02:48:45.447Z,13.67
2018-09-28T02:51:15.869Z,14.60
2018-09-28T02:53:46.305Z,15.00
2018-09-28T02:56:16.699Z,14.70
2018-09-28T02:58:47.070Z,14.93
2018-09-28T03:01:17.323Z,14.20
2018-09-28T03:03:47.822Z,14.13
2018-09-28T03:06:18.293Z,15.10
2018-09-28T03:08:48.612Z,16.70
2018-09-28T03:11:19.197Z,15.47
2018-09-28T03:13:49.664Z,17.00
2018-09-28T03:16:20.019Z,16.60
2018-09-28T03:18:50.496Z,17.10
2018-09-28T03:21:20.823Z,18.13
2018-09-28T03:23:51.140Z,16.80
2018-09-28T03:26:21.435Z,18.70
2018-09-28T03:28:51.799Z,17.50
2018-09-28T03:31:22.296Z,18.90
2018-09-28T03:33:52.704Z,17.00
2018-09-28T03:36:22.947Z,18.57
2018-09-28T03:38:53.430Z,18.37
2018-09-28T03:41:23.759Z,19.00
2018-09-28T03:43:54.220Z,18.07
2018-09-28T03:46:24.720Z,19.80
2018-09-28T03:48:54.952Z,20.20
2018-09-28T03:51:25.422Z,19.70
2018-09-28T03:53:55.951Z,19.20
2018-09-28T03:56:26.461Z,19.70
2018-09-28T03:58:57.057Z,20.27
2018-09-28T04:01:27.365Z,19.77
2018-09-28T04:03:57.865Z,20.43
2018-09-28T04:06:28.420Z,19.70
2018-09-28T04:08:58.932Z,20.80
2018-09-28T04:11:29.321Z,20.47
2018-09-28T04:13:59.644Z,21.47
2018-09-28T04:16:30.184Z,22.10
2018-09-28T04:19:00.809Z,20.40
2018-09-28T04:21:31.291Z,22.33
2018-09-28T04:24:01.991Z,21.83
2018-09-28T04:26:32.951Z,22.07
2018-09-28T04:29:03.395Z,23.27
2018-09-28T04:31:33.831Z,22.50
2018-09-28T04:34:04.392Z,22.93
2018-09-28T04:36:35.590Z,23.50
2018-09-28T04:39:13.436Z,24.53
2018-09-28T04:41:49.935Z,22.00
2018-09-28T04:44:28.096Z,24.47
2018-09-28T04:46:58.743Z,24.07
2018-09-28T04:49:29.720Z,22.03
2018-09-28T04:52:00.220Z,24.70
2018-09-28T04:54:30.519Z,24.43
2018-09-28T04:57:00.948Z,22.90
2018-09-28T04:59:31.532Z,23.90
2018-09-28T05:02:02.163Z,24.20
2018-09-28T05:04:32.800Z,25.10
2018-09-28T05:07:03.384Z,24.57
2018-09-28T05:09:33.625Z,26.73
2018-09-28T05:12:04.161Z,24.70
2018-09-28T05:14:34.726Z,25.00
2018-09-28T05:17:05.869Z,24.47
2018-09-28T05:19:36.459Z,24.67
2018-09-28T05:22:06.835Z,25.10
2018-09-28T05:24:37.509Z,23.87
2018-09-28T05:27:08.252Z,23.80
2018-09-28T05:29:38.893Z,22.23
2018-09-28T05:32:09.403Z,21.40
2018-09-28T05:34:39.975Z,17.93
2018-09-28T05:37:10.430Z,15.73
2018-09-28T05:39:40.983Z,16.67
2018-09-28T05:42:11.412Z,14.40
2018-09-28T05:44:41.918Z,14.30
2018-09-28T05:47:12.317Z,12.33
2018-09-28T05:49:42.710Z,10.90
2018-09-28T05:52:13.207Z,9.87
2018-09-28T05:54:43.552Z,10.10
2018-09-28T05:57:14.075Z,10.90
2018-09-28T05:59:49.432Z,10.07
2018-09-28T06:02:24.914Z,9.40
2018-09-28T06:05:00.227Z,7.27
2018-09-28T06:07:30.595Z,8.60
2018-09-28T06:10:00.952Z,7.40
2018-09-28T06:12:31.212Z,6.20
2018-09-28T06:15:01.472Z,5.90
2018-09-28T06:17:32.042Z,4.63
2018-09-28T06:20:02.700Z,3.80
2018-09-28T06:22:33.140Z,3.20
2018-09-28T06:25:03.535Z,2.73
2018-09-28T06:27:33.990Z,3.10
2018-09-28T06:30:04.528Z,2.07
2018-09-28T06:32:34.891Z,2.40
2018-09-28T06:35:05.566Z,2.17
2018-09-28T06:37:36.050Z,1.73
2018-09-28T06:40:06.513Z,2.40
2018-09-28T06:42:37.008Z,2.10
2018-09-28T06:45:07.605Z,2.37
2018-09-28T06:47:38.191Z,2.57
2018-09-28T06:50:09.184Z,2.33
2018-09-28T06:52:39.536Z,2.67
2018-09-28T06:55:10.020Z,2.40
2018-09-28T06:57:40.418Z,2.17
2018-09-28T07:00:10.877Z,3.00
2018-09-28T07:02:41.347Z,2.37
2018-09-28T07:05:16.980Z,2.37
2018-09-28T07:07:47.335Z,2.60
2018-09-28T07:10:17.979Z,2.77
2018-09-28T07:12:48.448Z,2.87
2018-09-28T07:15:19.028Z,2.20
2018-09-28T07:17:49.460Z,3.10
2018-09-28T07:20:19.852Z,3.00
2018-09-28T07:22:50.360Z,2.40
2018-09-28T07:25:20.809Z,2.40
2018-09-28T07:27:51.289Z,2.80
2018-09-28T07:30:21.804Z,2.97
2018-09-28T07:32:52.157Z,2.50
2018-09-28T07:35:23.427Z,2.70
2018-09-28T07:38:08.283Z,3.43
2018-09-28T07:40:38.648Z,2.77
2018-09-28T07:43:09.000Z,2.93
2018-09-28T07:45:39.402Z,2.57
2018-09-28T07:48:09.750Z,2.97
2018-09-28T07:50:40.688Z,2.50
2018-09-28T07:53:11.099Z,2.70
2018-09-28T07:55:41.474Z,2.23
2018-09-28T07:58:11.734Z,2.60
2018-09-28T08:00:42.087Z,3.40
2018-09-28T08:03:12.483Z,3.00
2018-09-28T08:05:43.079Z,2.23
2018-09-28T08:08:14.040Z,3.10
2018-09-28T08:10:44.400Z,2.67
2018-09-28T08:13:14.691Z,3.17
2018-09-28T08:15:45.076Z,2.80
2018-09-28T08:18:21.037Z,2.80
2018-09-28T08:20:51.547Z,2.57
2018-09-28T08:23:21.884Z,2.37
2018-09-28T08:25:52.372Z,2.30
2018-09-28T08:28:22.867Z,3.00
2018-09-28T08:30:53.181Z,2.60
2018-09-28T08:33:23.578Z,2.80
2018-09-28T08:35:53.971Z,2.80
2018-09-28T08:38:24.372Z,2.63
2018-09-28T08:40:54.603Z,3.10
2018-09-28T08:43:24.931Z,2.57
2018-09-28T08:45:55.287Z,2.30
2018-09-28T08:48:25.688Z,2.40
2018-09-28T08:50:56.254Z,2.53
2018-09-28T08:53:26.623Z,3.17
2018-09-28T08:55:57.041Z,2.80
2018-09-28T08:58:27.401Z,2.50
2018-09-28T09:00:58.116Z,2.53
2018-09-28T09:03:28.537Z,3.00
2018-09-28T09:05:58.966Z,2.77
2018-09-28T09:08:29.312Z,2.73
2018-09-28T09:10:59.572Z,2.33
2018-09-28T09:13:30.035Z,3.00
2018-09-28T09:16:00.635Z,2.57
2018-09-28T09:18:31.040Z,1.73
2018-09-28T09:21:01.312Z,2.43
2018-09-28T09:23:31.590Z,2.13
2018-09-28T09:26:01.957Z,2.17
2018-09-28T09:28:32.347Z,2.67
2018-09-28T09:31:02.632Z,2.30
2018-09-28T09:33:32.979Z,2.30
2018-09-28T09:36:03.461Z,2.67
2018-09-28T09:38:33.784Z,2.00
2018-09-28T09:41:04.230Z,2.30
2018-09-28T09:43:34.487Z,2.33
2018-09-28T09:46:04.988Z,2.00
2018-09-28T09:48:35.273Z,1.60
2018-09-28T09:51:05.775Z,2.30
2018-09-28T09:53:36.165Z,1.60
2018-09-28T09:56:06.588Z,1.83
2018-09-28T09:58:36.811Z,2.13
2018-09-28T10:01:08.479Z,2.60
2018-09-28T10:03:43.622Z,2.10
2018-09-28T10:06:14.201Z,1.60
2018-09-28T10:08:44.436Z,2.17
2018-09-28T10:11:14.918Z,2.20
2018-09-28T10:13:45.292Z,2.00
2018-09-28T10:16:15.680Z,2.37
2018-09-28T10:18:45.875Z,2.20
2018-09-28T10:21:16.394Z,1.83
2018-09-28T10:23:46.835Z,1.80
2018-09-28T10:26:17.383Z,1.83
2018-09-28T10:28:47.799Z,1.93
2018-09-28T10:31:18.143Z,1.33
2018-09-28T10:33:48.371Z,1.50
2018-09-28T10:36:18.709Z,2.10
2018-09-28T10:38:49.120Z,1.57
2018-09-28T10:41:19.522Z,1.63
2018-09-28T10:43:49.865Z,1.80
2018-09-28T10:46:20.249Z,2.03
2018-09-28T10:48:50.637Z,1.80
2018-09-28T10:51:21.055Z,1.70
2018-09-28T10:53:51.375Z,1.50
2018-09-28T10:56:21.883Z,1.80
2018-09-28T10:58:52.318Z,2.00
2018-09-28T11:01:22.855Z,1.77
2018-09-28T11:03:53.076Z,1.67
2018-09-28T11:06:23.459Z,2.10
2018-09-28T11:08:53.832Z,1.43
2018-09-28T11:11:24.340Z,1.40
2018-09-28T11:13:54.512Z,1.00
2018-09-28T11:16:25.016Z,1.10
2018-09-28T11:18:55.489Z,1.23
2018-09-28T11:21:26.198Z,1.77
2018-09-28T11:23:56.531Z,1.30
2018-09-28T11:26:27.636Z,1.50
2018-09-28T11:28:58.201Z,0.87
2018-09-28T11:31:28.612Z,1.20
2018-09-28T11:33:58.874Z,1.60
2018-09-28T11:36:29.431Z,1.50
2018-09-28T11:38:59.767Z,1.13
2018-09-28T11:41:30.246Z,1.63
2018-09-28T11:44:01.423Z,1.30
2018-09-28T11:46:31.804Z,1.67
2018-09-28T11:49:02.380Z,1.40
2018-09-28T11:51:33.050Z,1.30
2018-09-28T11:54:03.349Z,1.60
2018-09-28T11:56:35.927Z,1.57
2018-09-28T11:59:06.270Z,1.57
2018-09-28T12:01:36.744Z,1.50
2018-09-28T12:04:07.440Z,2.00
2018-09-28T12:06:37.926Z,1.70
2018-09-28T12:09:12.510Z,1.70
2018-09-28T12:11:43.501Z,1.43
2018-09-28T12:14:13.855Z,1.57
2018-09-28T12:16:51.092Z,1.30
2018-09-28T12:19:29.542Z,1.50
2018-09-28T12:22:00.015Z,1.60
2018-09-28T12:24:30.325Z,1.30
2018-09-28T12:27:00.732Z,1.47
2018-09-28T12:29:31.346Z,1.50
2018-09-28T12:32:01.904Z,1.67
2018-09-28T12:34:32.359Z,1.30
2018-09-28T12:37:02.718Z,1.27
2018-09-28T12:39:33.202Z,1.37
2018-09-28T12:42:04.492Z,1.40
2018-09-28T12:44:35.655Z,1.53
2018-09-28T12:47:06.228Z,1.27
2018-09-28T12:49:36.684Z,1.43
2018-09-28T12:52:07.398Z,2.20
2018-09-28T12:54:37.999Z,1.90
2018-09-28T12:57:09.048Z,1.40
2018-09-28T12:59:39.442Z,1.60
2018-09-28T13:02:09.862Z,1.03
2018-09-28T13:04:40.703Z,1.60
2018-09-28T13:07:11.168Z,1.37
2018-09-28T13:09:41.575Z,0.93
2018-09-28T13:12:12.165Z,1.37
2018-09-28T13:14:42.660Z,1.40
2018-09-28T13:17:13.129Z,1.30
2018-09-28T13:19:43.388Z,1.47
2018-09-28T13:22:13.893Z,0.97
2018-09-28T13:24:44.338Z,2.07
2018-09-28T13:27:14.825Z,1.27
2018-09-28T13:29:45.328Z,1.43
2018-09-28T13:32:15.645Z,1.20
2018-09-28T13:34:46.056Z,3.03
2018-09-28T13:37:16.349Z,1.80
2018-09-28T13:39:46.835Z,2.17
2018-09-28T13:42:17.129Z,1.90
2018-09-28T13:44:47.564Z,3.20
2018-09-28T13:47:17.980Z,1.60
2018-09-28T13:49:48.360Z,1.30
2018-09-28T13:52:18.998Z,1.00
2018-09-28T13:54:49.390Z,1.57
2018-09-28T13:57:19.682Z,1.63
2018-09-28T13:59:49.975Z,1.33
2018-09-28T14:02:20.249Z,1.40
2018-09-28T14:04:50.678Z,1.30
2018-09-28T14:07:20.968Z,1.40
2018-09-28T14:09:51.335Z,1.67
2018-09-28T14:12:21.744Z,1.20
2018-09-28T14:14:52.019Z,1.17
2018-09-28T14:17:22.530Z,1.00
2018-09-28T14:19:53.019Z,1.00
2018-09-28T14:22:23.371Z,1.10
2018-09-28T14:24:54.608Z,1.00
2018-09-28T14:27:24.956Z,1.00
2018-09-28T14:29:55.724Z,1.17
2018-09-28T14:32:26.050Z,1.40
2018-09-28T14:34:56.464Z,1.67
2018-09-28T14:37:27.004Z,1.17
2018-09-28T14:39:57.396Z,1.20
2018-09-28T14:42:27.672Z,1.40
2018-09-28T14:44:58.013Z,1.30
2018-09-28T14:47:28.529Z,1.00
2018-09-28T14:49:58.900Z,1.13
2018-09-28T14:52:29.166Z,1.87
2018-09-28T14:54:59.617Z,1.70
2018-09-28T14:57:29.995Z,1.70
2018-09-28T15:00:00.348Z,1.53
2018-09-28T15:02:30.948Z,1.27
2018-09-28T15:05:01.160Z,1.30
2018-09-28T15:07:31.708Z,1.10
2018-09-28T15:10:02.535Z,1.60
2018-09-28T15:12:33.038Z,1.10
2018-09-28T15:15:03.717Z,1.23
2018-09-28T15:17:34.203Z,1.10
2018-09-28T15:20:04.536Z,1.23
2018-09-28T15:22:35.040Z,1.30
2018-09-28T15:25:05.600Z,1.47
2018-09-28T15:27:36.106Z,1.00
2018-09-28T15:30:07.605Z,1.53
2018-09-28T15:32:38.190Z,1.80
2018-09-28T15:35:08.620Z,1.73
2018-09-28T15:37:39.300Z,1.60
2018-09-28T15:40:09.672Z,1.57
2018-09-28T15:42:39.927Z,1.80
2018-09-28T15:45:10.443Z,1.40
2018-09-28T15:47:40.806Z,1.37
2018-09-28T15:50:11.384Z,1.00
2018-09-28T15:52:41.839Z,1.97
2018-09-28T15:55:12.134Z,1.63
2018-09-28T15:57:42.574Z,1.10
2018-09-28T16:00:13.200Z,2.13
2018-09-28T16:02:43.725Z,1.43
2018-09-28T16:05:14.875Z,1.50
2018-09-28T16:07:45.330Z,1.40
2018-09-28T16:10:15.718Z,1.40
2018-09-28T16:12:45.972Z,1.60
2018-09-28T16:15:16.430Z,1.30
2018-09-28T16:17:46.871Z,2.00
2018-09-28T16:20:17.429Z,1.60
2018-09-28T16:22:47.828Z,2.60
2018-09-28T16:25:18.068Z,1.67
2018-09-28T16:27:48.437Z,1.53
2018-09-28T16:30:19.077Z,1.37
2018-09-28T16:32:49.426Z,1.30
2018-09-28T16:35:19.770Z,1.70
2018-09-28T16:37:50.056Z,1.33
2018-09-28T16:40:20.580Z,1.50
2018-09-28T16:42:51.083Z,1.97
2018-09-28T16:45:21.582Z,1.93
2018-09-28T16:47:51.905Z,1.93
2018-09-28T16:50:22.453Z,1.57
2018-09-28T16:52:52.947Z,2.40
2018-09-28T16:55:24.024Z,2.20
2018-09-28T16:57:54.488Z,2.40
2018-09-28T17:00:24.792Z,2.27
2018-09-28T17:02:55.216Z,2.83
2018-09-28T17:05:25.599Z,2.10
2018-09-28T17:07:56.109Z,2.13
2018-09-28T17:10:26.747Z,2.00
2018-09-28T17:12:57.140Z,1.93
2018-09-28T17:15:27.531Z,1.90
2018-09-28T17:17:57.889Z,1.50
2018-09-28T17:20:28.281Z,1.90
2018-09-28T17:22:58.623Z,2.20
2018-09-28T17:25:29.120Z,2.20
2018-09-28T17:27:59.432Z,1.70
2018-09-28T17:30:29.874Z,1.77
2018-09-28T17:33:00.386Z,1.70
2018-09-28T17:35:31.595Z,2.43
2018-09-28T17:38:02.066Z,1.40
2018-09-28T17:40:32.620Z,1.10
2018-09-28T17:43:03.306Z,2.40
2018-09-28T17:45:33.912Z,3.10
2018-09-28T17:48:04.404Z,1.93
2018-09-28T17:50:34.861Z,2.10
2018-09-28T17:53:05.412Z,2.40
2018-09-28T17:55:35.712Z,2.13
2018-09-28T17:58:06.120Z,2.20
2018-09-28T18:00:36.551Z,2.90
2018-09-28T18:03:07.063Z,2.83
2018-09-28T18:05:37.381Z,2.57
2018-09-28T18:08:07.976Z,1.87
2018-09-28T18:10:38.426Z,1.70
2018-09-28T18:13:09.796Z,1.73
2018-09-28T18:15:40.331Z,2.10
2018-09-28T18:18:10.771Z,1.50
2018-09-28T18:20:41.143Z,1.50
2018-09-28T18:23:11.322Z,1.67
2018-09-28T18:25:41.692Z,2.37
2018-09-28T18:28:19.779Z,2.40
2018-09-28T18:30:58.668Z,3.13
2018-09-28T18:33:37.210Z,3.80
2018-09-28T18:36:17.690Z,3.40
2018-09-28T18:38:57.716Z,2.77
2018-09-28T18:41:37.253Z,2.20
2018-09-28T18:44:08.012Z,2.17
2018-09-28T18:46:38.607Z,2.20
2018-09-28T18:49:09.207Z,2.10
2018-09-28T18:51:39.815Z,2.77
2018-09-28T18:54:10.028Z,2.17
2018-09-28T18:56:40.439Z,1.90
2018-09-28T18:59:10.868Z,1.70
2018-09-28T19:01:41.229Z,2.17
2018-09-28T19:04:11.572Z,3.53
2018-09-28T19:06:41.858Z,2.00
2018-09-28T19:09:12.891Z,1.70
2018-09-28T19:11:44.044Z,2.40
2018-09-28T19:14:14.559Z,2.00
2018-09-28T19:16:44.784Z,1.73
2018-09-28T19:19:15.299Z,2.30
2018-09-28T19:21:45.759Z,2.17
2018-09-28T19:24:16.176Z,1.80
2018-09-28T19:26:46.665Z,1.83
2018-09-28T19:29:16.999Z,2.20
2018-09-28T19:31:47.403Z,2.10
2018-09-28T19:34:17.787Z,1.90
2018-09-28T19:36:48.272Z,1.90
2018-09-28T19:39:19.095Z,2.40
2018-09-28T19:41:49.458Z,2.07
2018-09-28T19:44:32.362Z,2.03
2018-09-28T19:47:02.678Z,1.60
2018-09-28T19:49:33.241Z,4.30
2018-09-28T19:52:03.563Z,2.53
2018-09-28T19:54:34.007Z,2.17
2018-09-28T19:57:04.419Z,1.97
2018-09-28T19:59:34.670Z,2.50
2018-09-28T20:02:05.072Z,2.50
2018-09-28T20:04:35.607Z,2.07
2018-09-28T20:07:06.236Z,1.93
2018-09-28T20:09:36.595Z,1.83
2018-09-28T20:12:07.371Z,1.60
2018-09-28T20:14:38.067Z,2.00
2018-09-28T20:17:08.676Z,1.70
2018-09-28T20:19:39.110Z,1.70
2018-09-28T20:22:12.992Z,1.80
2018-09-28T20:24:43.389Z,1.60
2018-09-28T20:27:13.855Z,2.20
2018-09-28T20:29:44.350Z,1.73
2018-09-28T20:32:14.742Z,2.13
2018-09-28T20:34:45.112Z,2.60
2018-09-28T20:37:15.363Z,2.33
2018-09-28T20:39:45.860Z,3.30
2018-09-28T20:42:16.312Z,2.90
2018-09-28T20:44:46.999Z,3.43
2018-09-28T20:47:17.328Z,3.30
2018-09-28T20:49:47.680Z,2.50
2018-09-28T20:52:17.696Z,3.23
2018-09-28T20:54:47.731Z,2.60
2018-09-28T21:00:17.336Z,2.30
2018-09-28T21:02:47.540Z,2.20
2018-09-28T21:05:18.004Z,2.07
2018-09-28T21:07:48.383Z,2.90
2018-09-28T21:10:18.765Z,3.30
2018-09-28T21:12:49.191Z,3.50
2018-09-28T21:15:19.499Z,3.37
2018-09-28T21:17:49.713Z,6.43
2018-09-28T21:20:20.287Z,10.80
2018-09-28T21:22:50.674Z,10.80
2018-09-28T21:25:20.895Z,9.53
2018-09-28T21:27:52.156Z,11.30
2018-09-28T21:30:22.393Z,8.60
2018-09-28T21:32:52.672Z,5.00
2018-09-28T21:35:23.263Z,3.40
2018-09-28T21:37:53.573Z,3.13
2018-09-28T21:40:23.928Z,2.70
2018-09-28T21:42:54.292Z,2.10
2018-09-28T21:45:24.786Z,3.30
2018-09-28T21:47:55.212Z,2.77
2018-09-28T21:50:25.560Z,4.33
2018-09-28T21:52:55.917Z,4.30
2018-09-28T21:55:26.263Z,3.10
2018-09-28T21:57:56.679Z,3.00
2018-09-28T22:00:27.156Z,2.63
2018-09-28T22:02:57.865Z,3.13
2018-09-28T22:05:28.532Z,2.27
2018-09-28T22:07:58.712Z,2.23
2018-09-28T22:10:29.124Z,2.13
2018-09-28T22:12:59.388Z,2.00
2018-09-28T22:15:29.768Z,2.07
2018-09-28T22:18:00.275Z,2.10
2018-09-28T22:20:30.800Z,1.73
2018-09-28T22:23:01.819Z,2.27
2018-09-28T22:25:32.295Z,2.03
2018-09-28T22:28:02.771Z,1.80
2018-09-28T22:30:33.273Z,1.80
2018-09-28T22:33:03.752Z,2.43
2018-09-28T22:35:34.125Z,1.93
2018-09-28T22:38:04.497Z,1.97
2018-09-28T22:40:34.973Z,2.33
2018-09-28T22:43:05.476Z,2.10
2018-09-28T22:45:36.061Z,2.30
2018-09-28T22:48:06.639Z,1.93
2018-09-28T22:50:36.985Z,2.13
2018-09-28T22:53:07.328Z,1.77
2018-09-28T22:55:37.744Z,1.70
2018-09-28T22:58:08.161Z,1.70
2018-09-28T23:00:38.855Z,2.17
2018-09-28T23:03:09.535Z,2.60
2018-09-28T23:05:39.940Z,1.70
2018-09-28T23:08:10.392Z,2.50
2018-09-28T23:10:40.962Z,2.37
2018-09-28T23:13:11.426Z,2.60
2018-09-28T23:15:41.929Z,1.70
2018-09-28T23:18:12.239Z,2.17
2018-09-28T23:20:42.679Z,2.33
2018-09-28T23:23:13.073Z,3.23
2018-09-28T23:25:43.627Z,2.17
2018-09-28T23:28:14.020Z,1.90
2018-09-28T23:30:44.389Z,1.93
2018-09-28T23:33:14.699Z,2.50
2018-09-28T23:35:45.007Z,1.70
2018-09-28T23:38:15.372Z,2.20
2018-09-28T23:40:45.797Z,1.60
2018-09-28T23:43:16.096Z,2.07
2018-09-28T23:45:46.576Z,1.90
2018-09-28T23:48:16.875Z,2.37
2018-09-28T23:50:47.243Z,1.60
2018-09-28T23:53:17.408Z,2.20
2018-09-28T23:55:47.675Z,1.87
2018-09-28T23:58:18.106Z,2.23
